This is the latest recevied weather packets stored in our database for station/object VE6HFD-WX. If no packets are shown the sender has not sent any weather packets the latest 1 day(s).
| Time | Temp. | Humidity | Pressure | Rain* | Wind** | Luminosity | Snow |
|---|---|---|---|---|---|---|---|
| 1778114377 | 15.56° C | 31% | 1007.2 hPa | 0 mm | - | - | - |
| 1778114077 | 15.56° C | 30% | 1007.1 hPa | 0 mm | - | - | - |
| 1778113747 | 15.56° C | 31% | 1007.1 hPa | 0 mm | - | - | - |
| 1778113417 | 16.11° C | 30% | 1007.1 hPa | 0 mm | - | - | - |
| 1778113117 | 16.11° C | 30% | 1007.1 hPa | 0 mm | - | - | - |
| 1778112787 | 16.11° C | 30% | 1007.1 hPa | 0 mm | - | - | - |
| 1778112487 | 16.11° C | 29% | 1007.2 hPa | 0 mm | - | - | - |
| 1778112157 | 16.11° C | 29% | 1007.3 hPa | 0 mm | - | - | - |
| 1778111857 | 16.11° C | 28% | 1007.3 hPa | 0 mm | - | - | - |
| 1778111227 | 16.11° C | 28% | 1007.2 hPa | 0 mm | - | - | - |
| 1778110897 | 16.11° C | 28% | 1007.2 hPa | 0 mm | - | - | - |
| 1778110297 | 16.11° C | 29% | 1007.3 hPa | 0 mm | - | - | - |
| 1778109667 | 16.67° C | 28% | 1007.5 hPa | 0 mm | - | - | - |
| 1778109337 | 16.11° C | 29% | 1007.7 hPa | 0 mm | - | - | - |
| 1778107777 | 16.67° C | 29% | 1008 hPa | 0 mm | - | - | - |
| 1778107117 | 16.11° C | 28% | 1008.2 hPa | 0 mm | - | - | - |
| 1778106787 | 16.67° C | 29% | 1008.4 hPa | 0 mm | - | - | - |
| 1778106157 | 16.67° C | 28% | 1008.4 hPa | 0 mm | - | - | - |
| 1778105857 | 16.67° C | 28% | 1008.4 hPa | 0 mm | - | - | - |
| 1778098237 | 15° C | 29% | 1010.1 hPa | 0 mm | - | - | - |
| 1778096377 | 14.44° C | 30% | 1010.5 hPa | 0 mm | - | - | - |
| 1778096077 | 14.44° C | 31% | 1010.6 hPa | 0 mm | - | - | - |
| 1778095117 | 14.44° C | 31% | 1010.8 hPa | 0 mm | - | - | - |
| 1778071868 | -3.89° C | 82% | 1016 hPa | 0 mm | - | - | - |
| 1778058397 | -3.89° C | 81% | 1018.3 hPa | 0 mm | - | - | - |
* Rain latest hour (hover to see other rain measurements)
** Current wind speed in m/s (hover to see current wind gust speed)